sensor_id;sensor_type;location;lat;lon;timestamp;pressure;altitude;pressure_sealevel;temperature;humidity
74045;BME280;62389;51.412;5.436;2023-03-07T00:00:09;99865.63;;;3.40;95.99
74045;BME280;62389;51.412;5.436;2023-03-07T00:02:37;99871.78;;;3.36;95.99
74045;BME280;62389;51.412;5.436;2023-03-07T00:05:02;99875.38;;;3.32;95.28
74045;BME280;62389;51.412;5.436;2023-03-07T00:07:28;99872.81;;;3.30;95.27
74045;BME280;62389;51.412;5.436;2023-03-07T00:09:55;99873.66;;;3.31;95.41
74045;BME280;62389;51.412;5.436;2023-03-07T00:12:21;99875.44;;;3.29;94.92
74045;BME280;62389;51.412;5.436;2023-03-07T00:14:46;99885.78;;;3.29;94.90
74045;BME280;62389;51.412;5.436;2023-03-07T00:17:12;99883.31;;;3.24;95.20
74045;BME280;62389;51.412;5.436;2023-03-07T00:19:37;99887.78;;;3.19;95.02
74045;BME280;62389;51.412;5.436;2023-03-07T00:22:05;99885.38;;;3.13;94.66
74045;BME280;62389;51.412;5.436;2023-03-07T00:24:30;99871.69;;;3.09;94.74
74045;BME280;62389;51.412;5.436;2023-03-07T00:26:56;99878.72;;;3.04;95.09
74045;BME280;62389;51.412;5.436;2023-03-07T00:29:21;99867.59;;;3.02;95.28
74045;BME280;62389;51.412;5.436;2023-03-07T00:31:47;99871.06;;;3.01;95.98
74045;BME280;62389;51.412;5.436;2023-03-07T00:34:13;99868.50;;;3.01;96.05
74045;BME280;62389;51.412;5.436;2023-03-07T00:36:38;99868.50;;;3.01;96.05
74045;BME280;62389;51.412;5.436;2023-03-07T00:39:03;99865.03;;;3.01;95.50
74045;BME280;62389;51.412;5.436;2023-03-07T00:41:29;99863.31;;;3.01;96.80
74045;BME280;62389;51.412;5.436;2023-03-07T00:43:54;99855.56;;;3.01;96.03
74045;BME280;62389;51.412;5.436;2023-03-07T00:46:21;99858.09;;;3.03;95.96
74045;BME280;62389;51.412;5.436;2023-03-07T00:48:47;99849.50;;;3.02;96.31
74045;BME280;62389;51.412;5.436;2023-03-07T00:51:15;99841.66;;;3.05;96.27
74045;BME280;62389;51.412;5.436;2023-03-07T00:53:42;99837.44;;;3.03;96.61
74045;BME280;62389;51.412;5.436;2023-03-07T00:56:13;99838.34;;;3.00;96.81
74045;BME280;62389;51.412;5.436;2023-03-07T00:58:39;99828.84;;;3.02;95.95
74045;BME280;62389;51.412;5.436;2023-03-07T01:01:06;99831.44;;;3.02;96.49
74045;BME280;62389;51.412;5.436;2023-03-07T01:03:33;99824.56;;;3.01;96.47
74045;BME280;62389;51.412;5.436;2023-03-07T01:06:08;99823.56;;;3.05;96.57
74045;BME280;62389;51.412;5.436;2023-03-07T01:08:34;99819.22;;;3.07;95.90
74045;BME280;62389;51.412;5.436;2023-03-07T01:11:01;99818.38;;;3.07;96.40
74045;BME280;62389;51.412;5.436;2023-03-07T01:13:27;99820.84;;;3.10;94.89
74045;BME280;62389;51.412;5.436;2023-03-07T01:15:53;99819.97;;;3.11;95.89
74045;BME280;62389;51.412;5.436;2023-03-07T01:27:10;99818.19;;;3.13;96.08
74045;BME280;62389;51.412;5.436;2023-03-07T01:29:36;99812.97;;;3.15;95.40
74045;BME280;62389;51.412;5.436;2023-03-07T01:32:01;99809.59;;;3.13;95.94
74045;BME280;62389;51.412;5.436;2023-03-07T01:34:27;99806.19;;;3.12;95.94
74045;BME280;62389;51.412;5.436;2023-03-07T01:36:52;99809.59;;;3.13;95.88
74045;BME280;62389;51.412;5.436;2023-03-07T01:39:17;99801.00;;;3.12;96.68
74045;BME280;62389;51.412;5.436;2023-03-07T01:41:44;99790.63;;;3.14;97.06
74045;BME280;62389;51.412;5.436;2023-03-07T01:44:15;99793.28;;;3.10;97.16
74045;BME280;62389;51.412;5.436;2023-03-07T01:49:40;99786.44;;;3.09;96.51
74045;BME280;62389;51.412;5.436;2023-03-07T01:52:10;99784.75;;;3.08;96.48
74045;BME280;62389;51.412;5.436;2023-03-07T01:54:39;99772.72;;;3.07;96.58
74045;BME280;62389;51.412;5.436;2023-03-07T01:57:05;99767.56;;;3.07;96.20
74045;BME280;62389;51.412;5.436;2023-03-07T01:59:33;99772.72;;;3.07;96.51
74045;BME280;62389;51.412;5.436;2023-03-07T02:02:05;99774.41;;;3.08;96.51
74045;BME280;62389;51.412;5.436;2023-03-07T02:04:36;99770.16;;;3.06;96.35
74045;BME280;62389;51.412;5.436;2023-03-07T02:07:04;99766.75;;;3.05;96.19
74045;BME280;62389;51.412;5.436;2023-03-07T02:09:32;99765.94;;;3.03;97.36
74045;BME280;62389;51.412;5.436;2023-03-07T02:12:00;99759.94;;;3.03;97.36
74045;BME280;62389;51.412;5.436;2023-03-07T02:14:25;99768.59;;;3.02;97.41
74045;BME280;62389;51.412;5.436;2023-03-07T02:16:52;99759.94;;;3.03;96.88
74045;BME280;62389;51.412;5.436;2023-03-07T02:24:44;99755.63;;;3.03;97.14
74045;BME280;62389;51.412;5.436;2023-03-07T02:27:12;99752.97;;;3.05;96.75
74045;BME280;62389;51.412;5.436;2023-03-07T02:29:38;99748.75;;;3.02;97.16
74045;BME280;62389;51.412;5.436;2023-03-07T02:32:05;99755.69;;;3.02;97.60
74045;BME280;62389;51.412;5.436;2023-03-07T02:34:30;99742.75;;;3.02;97.38
74045;BME280;62389;51.412;5.436;2023-03-07T02:37:20;99743.69;;;2.99;97.06
74045;BME280;62389;51.412;5.436;2023-03-07T02:39:47;99736.81;;;2.98;97.32
74045;BME280;62389;51.412;5.436;2023-03-07T02:42:26;99730.75;;;2.99;97.52
74045;BME280;62389;51.412;5.436;2023-03-07T02:45:02;99730.88;;;2.96;97.38
74045;BME280;62389;51.412;5.436;2023-03-07T02:47:28;99738.63;;;2.96;97.04
74045;BME280;62389;51.412;5.436;2023-03-07T02:49:54;99732.56;;;2.97;96.92
74045;BME280;62389;51.412;5.436;2023-03-07T02:52:20;99723.13;;;2.96;97.33
74045;BME280;62389;51.412;5.436;2023-03-07T02:54:46;99728.28;;;2.96;97.05
74045;BME280;62389;51.412;5.436;2023-03-07T02:57:11;99729.13;;;2.97;97.54
74045;BME280;62389;51.412;5.436;2023-03-07T02:59:36;99721.38;;;2.97;97.35
74045;BME280;62389;51.412;5.436;2023-03-07T03:02:02;99721.34;;;2.98;97.66
74045;BME280;62389;51.412;5.436;2023-03-07T03:04:27;99722.94;;;3.02;96.57
74045;BME280;62389;51.412;5.436;2023-03-07T03:06:53;99726.44;;;3.00;96.91
74045;BME280;62389;51.412;5.436;2023-03-07T03:09:18;99725.53;;;3.01;97.02
74045;BME280;62389;51.412;5.436;2023-03-07T03:11:44;99721.25;;;3.01;97.68
74045;BME280;62389;51.412;5.436;2023-03-07T03:14:09;99717.75;;;3.02;97.47
74045;BME280;62389;51.412;5.436;2023-03-07T03:16:34;99721.13;;;3.04;96.48
74045;BME280;62389;51.412;5.436;2023-03-07T03:19:00;99718.66;;;3.01;97.65
74045;BME280;62389;51.412;5.436;2023-03-07T03:21:25;99722.94;;;3.02;97.58
74045;BME280;62389;51.412;5.436;2023-03-07T03:23:51;99706.59;;;3.02;97.19
74045;BME280;62389;51.412;5.436;2023-03-07T03:26:16;99716.81;;;3.05;96.49
74045;BME280;62389;51.412;5.436;2023-03-07T03:28:41;99710.81;;;3.04;96.85
74045;BME280;62389;51.412;5.436;2023-03-07T03:31:09;99716.81;;;3.05;97.63
74045;BME280;62389;51.412;5.436;2023-03-07T03:33:35;99714.28;;;3.03;97.10
74045;BME280;62389;51.412;5.436;2023-03-07T03:36:06;99709.13;;;3.03;97.53
74045;BME280;62389;51.412;5.436;2023-03-07T03:38:33;99706.53;;;3.03;97.67
74045;BME280;62389;51.412;5.436;2023-03-07T03:41:07;99706.63;;;3.00;97.63
74045;BME280;62389;51.412;5.436;2023-03-07T03:43:34;99704.94;;;2.99;97.70
74045;BME280;62389;51.412;5.436;2023-03-07T03:45:59;99702.34;;;2.99;97.65
74045;BME280;62389;51.412;5.436;2023-03-07T03:48:26;99693.75;;;2.99;98.02
74045;BME280;62389;51.412;5.436;2023-03-07T03:51:09;99699.75;;;2.99;98.35
74045;BME280;62389;51.412;5.436;2023-03-07T03:53:36;99692.84;;;3.00;98.35
74045;BME280;62389;51.412;5.436;2023-03-07T03:56:06;99700.59;;;3.01;97.94
74045;BME280;62389;51.412;5.436;2023-03-07T03:58:33;99689.34;;;3.02;98.55
74045;BME280;62389;51.412;5.436;2023-03-07T04:01:06;99685.03;;;3.03;98.23
74045;BME280;62389;51.412;5.436;2023-03-07T04:03:33;99683.34;;;3.02;98.67
74045;BME280;62389;51.412;5.436;2023-03-07T04:06:03;99677.34;;;3.00;97.97
74045;BME280;62389;51.412;5.436;2023-03-07T04:08:29;99672.19;;;3.00;98.21
74045;BME280;62389;51.412;5.436;2023-03-07T04:10:55;99671.28;;;3.02;97.78
74045;BME280;62389;51.412;5.436;2023-03-07T04:13:20;99668.53;;;3.07;98.26
74045;BME280;62389;51.412;5.436;2023-03-07T04:15:45;99658.22;;;3.07;97.87
74045;BME280;62389;51.412;5.436;2023-03-07T04:18:11;99656.50;;;3.06;97.84
74045;BME280;62389;51.412;5.436;2023-03-07T04:20:36;99665.06;;;3.08;97.48
74045;BME280;62389;51.412;5.436;2023-03-07T04:23:02;99656.47;;;3.07;98.13
74045;BME280;62389;51.412;5.436;2023-03-07T04:25:27;99654.81;;;3.05;97.86
74045;BME280;62389;51.412;5.436;2023-03-07T04:27:52;99650.47;;;3.05;97.69
74045;BME280;62389;51.412;5.436;2023-03-07T04:30:18;99652.19;;;3.06;97.82
74045;BME280;62389;51.412;5.436;2023-03-07T04:32:44;99644.47;;;3.05;98.05
74045;BME280;62389;51.412;5.436;2023-03-07T04:35:09;99633.25;;;3.06;98.37
74045;BME280;62389;51.412;5.436;2023-03-07T04:37:34;99638.38;;;3.07;97.93
74045;BME280;62389;51.412;5.436;2023-03-07T04:40:00;99635.81;;;3.07;98.63
74045;BME280;62389;51.412;5.436;2023-03-07T04:42:25;99640.97;;;3.07;98.19
74045;BME280;62389;51.412;5.436;2023-03-07T04:44:50;99634.06;;;3.08;98.72
74045;BME280;62389;51.412;5.436;2023-03-07T04:47:16;99627.94;;;3.10;98.41
74045;BME280;62389;51.412;5.436;2023-03-07T04:49:41;99622.88;;;3.07;98.40
74045;BME280;62389;51.412;5.436;2023-03-07T04:52:07;99626.31;;;3.08;98.74
74045;BME280;62389;51.412;5.436;2023-03-07T04:54:32;99625.47;;;3.07;98.04
74045;BME280;62389;51.412;5.436;2023-03-07T04:56:57;99622.03;;;3.07;98.50
74045;BME280;62389;51.412;5.436;2023-03-07T04:59:23;99622.03;;;3.07;97.97
74045;BME280;62389;51.412;5.436;2023-03-07T05:01:48;99616.81;;;3.08;97.84
74045;BME280;62389;51.412;5.436;2023-03-07T05:04:14;99620.31;;;3.07;98.40
74045;BME280;62389;51.412;5.436;2023-03-07T05:06:39;99621.19;;;3.06;98.19
74045;BME280;62389;51.412;5.436;2023-03-07T05:09:04;99611.72;;;3.05;98.45
74045;BME280;62389;51.412;5.436;2023-03-07T05:11:30;99612.63;;;3.04;98.86
74045;BME280;62389;51.412;5.436;2023-03-07T05:13:55;99605.69;;;3.06;98.05
74045;BME280;62389;51.412;5.436;2023-03-07T05:16:20;99606.63;;;3.04;98.23
74045;BME280;62389;51.412;5.436;2023-03-07T05:18:45;99608.38;;;3.03;98.49
74045;BME280;62389;51.412;5.436;2023-03-07T05:21:11;99611.03;;;3.00;98.75
74045;BME280;62389;51.412;5.436;2023-03-07T05:23:36;99601.59;;;2.99;98.56
74045;BME280;62389;51.412;5.436;2023-03-07T05:26:02;99595.53;;;3.00;98.24
74045;BME280;62389;51.412;5.436;2023-03-07T05:28:27;99592.13;;;3.00;98.04
74045;BME280;62389;51.412;5.436;2023-03-07T05:30:52;99595.53;;;3.00;98.37
74045;BME280;62389;51.412;5.436;2023-03-07T05:33:18;99583.53;;;2.99;98.89
74045;BME280;62389;51.412;5.436;2023-03-07T05:35:44;99575.91;;;2.96;99.15
74045;BME280;62389;51.412;5.436;2023-03-07T05:38:09;99572.41;;;2.97;98.56
74045;BME280;62389;51.412;5.436;2023-03-07T05:40:35;99566.41;;;2.97;98.80
74045;BME280;62389;51.412;5.436;2023-03-07T05:43:00;99569.78;;;2.99;99.28
74045;BME280;62389;51.412;5.436;2023-03-07T05:45:26;99563.69;;;3.01;99.24
74045;BME280;62389;51.412;5.436;2023-03-07T05:47:51;99560.13;;;3.04;98.83
74045;BME280;62389;51.412;5.436;2023-03-07T05:50:17;99560.88;;;3.07;99.60
74045;BME280;62389;51.412;5.436;2023-03-07T05:52:43;99561.66;;;3.09;100.00
74045;BME280;62389;51.412;5.436;2023-03-07T05:55:08;99554.66;;;3.13;99.55
74045;BME280;62389;51.412;5.436;2023-03-07T05:57:34;99553.59;;;3.19;98.69
74045;BME280;62389;51.412;5.436;2023-03-07T05:59:59;99564.72;;;3.21;99.76
74045;BME280;62389;51.412;5.436;2023-03-07T06:02:25;99564.69;;;3.22;99.33
74045;BME280;62389;51.412;5.436;2023-03-07T06:04:50;99565.47;;;3.24;99.10
74045;BME280;62389;51.412;5.436;2023-03-07T06:07:15;99556.88;;;3.24;99.40
74045;BME280;62389;51.412;5.436;2023-03-07T06:09:41;99562.88;;;3.24;99.76
74045;BME280;62389;51.412;5.436;2023-03-07T06:12:08;99564.56;;;3.25;99.74
74045;BME280;62389;51.412;5.436;2023-03-07T06:14:34;99559.38;;;3.27;99.12
74045;BME280;62389;51.412;5.436;2023-03-07T06:16:59;99568.00;;;3.26;100.00
74045;BME280;62389;51.412;5.436;2023-03-07T06:19:26;99566.28;;;3.26;99.77
74045;BME280;62389;51.412;5.436;2023-03-07T06:21:51;99581.06;;;3.21;98.87
74045;BME280;62389;51.412;5.436;2023-03-07T06:24:17;99571.00;;;3.14;98.12
74045;BME280;62389;51.412;5.436;2023-03-07T06:26:42;99557.47;;;3.07;98.35
74045;BME280;62389;51.412;5.436;2023-03-07T06:29:08;99570.72;;;2.96;97.96
74045;BME280;62389;51.412;5.436;2023-03-07T06:31:33;99567.59;;;2.87;98.14
74045;BME280;62389;51.412;5.436;2023-03-07T06:33:58;99566.84;;;2.83;97.80
74045;BME280;62389;51.412;5.436;2023-03-07T06:36:24;99570.22;;;2.85;98.34
74045;BME280;62389;51.412;5.436;2023-03-07T06:38:49;99579.69;;;2.84;98.21
74045;BME280;62389;51.412;5.436;2023-03-07T06:41:15;99578.09;;;2.80;98.35
74045;BME280;62389;51.412;5.436;2023-03-07T06:43:40;99578.16;;;2.79;98.16
74045;BME280;62389;51.412;5.436;2023-03-07T06:46:06;99572.09;;;2.80;97.98
74045;BME280;62389;51.412;5.436;2023-03-07T06:48:31;99577.19;;;2.83;98.03
74045;BME280;62389;51.412;5.436;2023-03-07T06:50:59;99578.91;;;2.82;98.09
74045;BME280;62389;51.412;5.436;2023-03-07T06:53:24;99572.22;;;2.77;98.33
74045;BME280;62389;51.412;5.436;2023-03-07T06:55:51;99565.34;;;2.76;98.30
74045;BME280;62389;51.412;5.436;2023-03-07T06:58:17;99569.78;;;2.72;98.08
74045;BME280;62389;51.412;5.436;2023-03-07T07:00:43;99574.97;;;2.71;98.50
74045;BME280;62389;51.412;5.436;2023-03-07T07:03:11;99572.50;;;2.68;97.97
74045;BME280;62389;51.412;5.436;2023-03-07T07:05:36;99580.44;;;2.62;98.32
74045;BME280;62389;51.412;5.436;2023-03-07T07:08:02;99586.47;;;2.60;97.93
74045;BME280;62389;51.412;5.436;2023-03-07T07:10:27;99585.63;;;2.60;97.92
74045;BME280;62389;51.412;5.436;2023-03-07T07:12:52;99589.16;;;2.57;98.10
74045;BME280;62389;51.412;5.436;2023-03-07T07:15:21;99589.97;;;2.59;97.76
74045;BME280;62389;51.412;5.436;2023-03-07T07:17:46;99583.13;;;2.58;97.56
74045;BME280;62389;51.412;5.436;2023-03-07T07:20:12;99575.31;;;2.60;97.63
74045;BME280;62389;51.412;5.436;2023-03-07T07:22:37;99579.53;;;2.63;97.86
74045;BME280;62389;51.412;5.436;2023-03-07T07:25:03;99582.88;;;2.66;97.33
74045;BME280;62389;51.412;5.436;2023-03-07T07:27:28;99582.00;;;2.66;97.66
74045;BME280;62389;51.412;5.436;2023-03-07T07:29:54;99583.75;;;2.65;97.56
74045;BME280;62389;51.412;5.436;2023-03-07T07:32:19;99583.88;;;2.62;96.33
74045;BME280;62389;51.412;5.436;2023-03-07T07:34:44;99587.50;;;2.55;96.31
74045;BME280;62389;51.412;5.436;2023-03-07T07:37:10;99596.28;;;2.49;96.49
74045;BME280;62389;51.412;5.436;2023-03-07T07:39:35;99604.88;;;2.50;96.71
74045;BME280;62389;51.412;5.436;2023-03-07T07:42:00;99610.19;;;2.45;96.40
74045;BME280;62389;51.412;5.436;2023-03-07T07:44:29;99625.78;;;2.41;95.73
74045;BME280;62389;51.412;5.436;2023-03-07T07:46:55;99630.25;;;2.36;95.52
74045;BME280;62389;51.412;5.436;2023-03-07T07:49:21;99638.34;;;2.23;95.70
74045;BME280;62389;51.412;5.436;2023-03-07T07:51:47;99646.59;;;2.06;95.46
74045;BME280;62389;51.412;5.436;2023-03-07T07:54:12;99646.13;;;1.91;95.70
74045;BME280;62389;51.412;5.436;2023-03-07T07:56:37;99651.41;;;1.88;96.33
74045;BME280;62389;51.412;5.436;2023-03-07T07:59:03;99647.25;;;1.82;96.19
74045;BME280;62389;51.412;5.436;2023-03-07T08:01:28;99611.06;;;1.85;96.62
74045;BME280;62389;51.412;5.436;2023-03-07T08:03:54;99619.50;;;1.90;96.64
74045;BME280;62389;51.412;5.436;2023-03-07T08:06:21;99621.34;;;1.87;95.41
74045;BME280;62389;51.412;5.436;2023-03-07T08:08:47;99622.25;;;1.84;95.48
74045;BME280;62389;51.412;5.436;2023-03-07T08:11:13;99620.53;;;1.85;96.24
74045;BME280;62389;51.412;5.436;2023-03-07T08:13:39;99638.44;;;1.89;95.97
74045;BME280;62389;51.412;5.436;2023-03-07T08:16:11;99647.16;;;1.85;96.09
74045;BME280;62389;51.412;5.436;2023-03-07T08:18:39;99644.56;;;1.87;95.94
74045;BME280;62389;51.412;5.436;2023-03-07T08:21:05;99649.59;;;1.90;95.95
74045;BME280;62389;51.412;5.436;2023-03-07T08:23:30;99650.38;;;1.93;96.12
74045;BME280;62389;51.412;5.436;2023-03-07T08:26:03;99650.38;;;1.93;96.05
74045;BME280;62389;51.412;5.436;2023-03-07T08:28:29;99650.44;;;1.90;95.58
74045;BME280;62389;51.412;5.436;2023-03-07T08:30:55;99663.34;;;1.90;95.43
74045;BME280;62389;51.412;5.436;2023-03-07T08:33:20;99663.31;;;1.92;95.51
74045;BME280;62389;51.412;5.436;2023-03-07T08:35:46;99657.16;;;1.97;96.03
74045;BME280;62389;51.412;5.436;2023-03-07T08:38:11;99659.63;;;2.00;95.42
74045;BME280;62389;51.412;5.436;2023-03-07T08:40:36;99663.81;;;2.04;95.73
74045;BME280;62389;51.412;5.436;2023-03-07T08:43:02;99671.44;;;2.09;95.38
74045;BME280;62389;51.412;5.436;2023-03-07T08:45:28;99674.91;;;2.08;94.83
74045;BME280;62389;51.412;5.436;2023-03-07T08:47:54;99677.53;;;2.06;94.91
74045;BME280;62389;51.412;5.436;2023-03-07T08:50:24;99673.22;;;2.07;95.38
74045;BME280;62389;51.412;5.436;2023-03-07T08:52:50;99672.38;;;2.06;94.47
74045;BME280;62389;51.412;5.436;2023-03-07T08:55:16;99666.41;;;2.04;94.73
74045;BME280;62389;51.412;5.436;2023-03-07T08:57:42;99675.06;;;2.02;94.33
74045;BME280;62389;51.412;5.436;2023-03-07T09:00:08;99659.72;;;1.97;94.42
74045;BME280;62389;51.412;5.436;2023-03-07T09:02:34;99668.19;;;2.02;94.72
74045;BME280;62389;51.412;5.436;2023-03-07T09:05:00;99662.13;;;2.03;93.67
74045;BME280;62389;51.412;5.436;2023-03-07T09:07:26;99671.84;;;1.94;93.63
74045;BME280;62389;51.412;5.436;2023-03-07T09:09:51;99667.09;;;1.78;92.58
74045;BME280;62389;51.412;5.436;2023-03-07T09:12:17;99672.59;;;1.66;93.29
74045;BME280;62389;51.412;5.436;2023-03-07T09:14:42;99664.25;;;1.55;93.06
74045;BME280;62389;51.412;5.436;2023-03-07T09:17:07;99669.53;;;1.50;93.76
74045;BME280;62389;51.412;5.436;2023-03-07T09:19:33;99663.66;;;1.45;93.56
74045;BME280;62389;51.412;5.436;2023-03-07T09:21:59;99676.69;;;1.39;93.87
74045;BME280;62389;51.412;5.436;2023-03-07T09:24:24;99673.31;;;1.37;94.24
74045;BME280;62389;51.412;5.436;2023-03-07T09:26:50;99679.38;;;1.36;94.71
74045;BME280;62389;51.412;5.436;2023-03-07T09:29:17;99688.78;;;1.37;95.11
74045;BME280;62389;51.412;5.436;2023-03-07T09:31:43;99687.16;;;1.33;94.30
74045;BME280;62389;51.412;5.436;2023-03-07T09:34:08;99689.69;;;1.35;95.10
74045;BME280;62389;51.412;5.436;2023-03-07T09:36:34;99696.56;;;1.34;94.35
74045;BME280;62389;51.412;5.436;2023-03-07T09:39:01;99697.50;;;1.32;94.41
74045;BME280;62389;51.412;5.436;2023-03-07T09:41:53;99691.53;;;1.29;94.71
74045;BME280;62389;51.412;5.436;2023-03-07T09:50:01;99689.22;;;1.19;94.33
74045;BME280;62389;51.412;5.436;2023-03-07T09:52:28;99690.09;;;1.18;94.46
74045;BME280;62389;51.412;5.436;2023-03-07T09:54:59;99685.75;;;1.20;95.44
74045;BME280;62389;51.412;5.436;2023-03-07T09:57:29;99688.19;;;1.26;95.09
74045;BME280;62389;51.412;5.436;2023-03-07T09:59:59;99686.44;;;1.28;95.21
74045;BME280;62389;51.412;5.436;2023-03-07T10:02:31;99694.00;;;1.34;95.28
74045;BME280;62389;51.412;5.436;2023-03-07T10:07:39;99691.03;;;1.49;94.78
74045;BME280;62389;51.412;5.436;2023-03-07T10:10:11;99691.88;;;1.50;93.88
74045;BME280;62389;51.412;5.436;2023-03-07T10:15:43;99696.13;;;1.52;94.01
74045;BME280;62389;51.412;5.436;2023-03-07T10:26:56;99700.03;;;1.33;94.06
74045;BME280;62389;51.412;5.436;2023-03-07T10:29:26;99699.25;;;1.31;94.49
74045;BME280;62389;51.412;5.436;2023-03-07T10:32:07;99699.97;;;1.36;94.55
74045;BME280;62389;51.412;5.436;2023-03-07T10:34:39;99697.31;;;1.39;93.96
74045;BME280;62389;51.412;5.436;2023-03-07T10:37:19;99694.72;;;1.39;93.54
74045;BME280;62389;51.412;5.436;2023-03-07T10:39:55;99699.88;;;1.39;93.97
74045;BME280;62389;51.412;5.436;2023-03-07T10:42:23;99695.56;;;1.40;94.32
74045;BME280;62389;51.412;5.436;2023-03-07T10:44:50;99695.50;;;1.43;94.33
74045;BME280;62389;51.412;5.436;2023-03-07T10:47:27;99690.34;;;1.43;94.43
74045;BME280;62389;51.412;5.436;2023-03-07T10:50:01;99695.44;;;1.46;93.62
74045;BME280;62389;51.412;5.436;2023-03-07T10:52:38;99690.31;;;1.44;93.73
74045;BME280;62389;51.412;5.436;2023-03-07T10:58:25;99692.03;;;1.44;94.67
74045;BME280;62389;51.412;5.436;2023-03-07T11:03:39;99690.75;;;1.62;95.34
74045;BME280;62389;51.412;5.436;2023-03-07T11:06:06;99690.53;;;1.69;94.86
74045;BME280;62389;51.412;5.436;2023-03-07T11:08:47;99693.06;;;1.72;94.99
74045;BME280;62389;51.412;5.436;2023-03-07T11:11:30;99690.44;;;1.74;95.22
74045;BME280;62389;51.412;5.436;2023-03-07T11:14:11;99689.41;;;1.79;94.66
74045;BME280;62389;51.412;5.436;2023-03-07T11:17:01;99686.66;;;1.87;94.89
74045;BME280;62389;51.412;5.436;2023-03-07T11:19:36;99689.94;;;1.92;94.07
74045;BME280;62389;51.412;5.436;2023-03-07T11:22:15;99689.84;;;1.97;94.92
74045;BME280;62389;51.412;5.436;2023-03-07T11:24:46;99689.72;;;2.01;95.39
74045;BME280;62389;51.412;5.436;2023-03-07T11:27:21;99687.75;;;2.10;95.19
74045;BME280;62389;51.412;5.436;2023-03-07T11:30:51;99690.72;;;2.27;95.28
74045;BME280;62389;51.412;5.436;2023-03-07T11:33:05;99690.28;;;2.42;94.66
74045;BME280;62389;51.412;5.436;2023-03-07T11:38:50;99684.94;;;2.48;93.85
74045;BME280;62389;51.412;5.436;2023-03-07T11:41:32;99688.06;;;2.59;94.21
74045;BME280;62389;51.412;5.436;2023-03-07T11:44:09;99695.59;;;2.67;93.93
74045;BME280;62389;51.412;5.436;2023-03-07T11:58:48;99686.88;;;2.70;93.13
74045;BME280;62389;51.412;5.436;2023-03-07T12:01:34;99686.00;;;2.71;92.72
74045;BME280;62389;51.412;5.436;2023-03-07T12:12:35;99675.78;;;2.68;93.33
74045;BME280;62389;51.412;5.436;2023-03-07T12:20:38;99671.50;;;2.67;94.24
74045;BME280;62389;51.412;5.436;2023-03-07T12:23:19;99677.53;;;2.66;93.68
74045;BME280;62389;51.412;5.436;2023-03-07T12:25:55;99681.84;;;2.67;93.95
74045;BME280;62389;51.412;5.436;2023-03-07T12:28:53;99674.75;;;2.73;93.86
74045;BME280;62389;51.412;5.436;2023-03-07T12:31:35;99671.13;;;2.79;94.55
74045;BME280;62389;51.412;5.436;2023-03-07T12:34:17;99677.94;;;2.81;93.96
74045;BME280;62389;51.412;5.436;2023-03-07T12:36:57;99676.84;;;2.89;93.88
74045;BME280;62389;51.412;5.436;2023-03-07T12:39:48;99677.34;;;3.01;93.66
74045;BME280;62389;51.412;5.436;2023-03-07T12:50:23;99675.47;;;3.05;93.77
74045;BME280;62389;51.412;5.436;2023-03-07T12:52:59;99673.00;;;3.02;93.76
74045;BME280;62389;51.412;5.436;2023-03-07T12:55:36;99667.78;;;3.03;93.77
74045;BME280;62389;51.412;5.436;2023-03-07T12:58:06;99663.03;;;3.18;93.65
74045;BME280;62389;51.412;5.436;2023-03-07T13:00:40;99669.69;;;3.25;93.50
74045;BME280;62389;51.412;5.436;2023-03-07T13:03:10;99669.72;;;3.23;93.46
74045;BME280;62389;51.412;5.436;2023-03-07T13:05:39;99666.47;;;3.18;92.79
74045;BME280;62389;51.412;5.436;2023-03-07T13:08:16;99671.50;;;3.21;93.64
74045;BME280;62389;51.412;5.436;2023-03-07T13:10:44;99659.31;;;3.26;93.50
74045;BME280;62389;51.412;5.436;2023-03-07T13:16:04;99660.09;;;3.28;93.50
74045;BME280;62389;51.412;5.436;2023-03-07T13:18:30;99667.09;;;3.25;93.17
74045;BME280;62389;51.412;5.436;2023-03-07T13:26:55;99664.69;;;3.45;93.91
74045;BME280;62389;51.412;5.436;2023-03-07T13:43:00;99661.72;;;3.31;93.58
74045;BME280;62389;51.412;5.436;2023-03-07T13:48:11;99663.53;;;3.29;93.93
74045;BME280;62389;51.412;5.436;2023-03-07T13:53:12;99667.22;;;3.22;93.76
74045;BME280;62389;51.412;5.436;2023-03-07T13:55:43;99675.94;;;3.18;93.59
74045;BME280;62389;51.412;5.436;2023-03-07T13:58:27;99674.34;;;3.14;93.57
74045;BME280;62389;51.412;5.436;2023-03-07T14:00:58;99670.09;;;3.13;94.17
74045;BME280;62389;51.412;5.436;2023-03-07T14:03:34;99681.25;;;3.13;94.41
74045;BME280;62389;51.412;5.436;2023-03-07T14:06:14;99672.88;;;3.06;94.29
74045;BME280;62389;51.412;5.436;2023-03-07T14:08:41;99685.88;;;3.03;93.70
74045;BME280;62389;51.412;5.436;2023-03-07T14:11:35;99681.69;;;2.99;93.87
74045;BME280;62389;51.412;5.436;2023-03-07T14:26:55;99692.09;;;3.24;94.20
74045;BME280;62389;51.412;5.436;2023-03-07T14:29:23;99690.25;;;3.28;94.64
74045;BME280;62389;51.412;5.436;2023-03-07T14:31:53;99691.16;;;3.27;93.73
74045;BME280;62389;51.412;5.436;2023-03-07T14:34:29;99688.72;;;3.22;93.76
74045;BME280;62389;51.412;5.436;2023-03-07T14:37:00;99691.44;;;3.18;94.18
74045;BME280;62389;51.412;5.436;2023-03-07T14:47:41;99710.91;;;3.01;93.42
74045;BME280;62389;51.412;5.436;2023-03-07T14:50:13;99706.75;;;2.96;94.17
74045;BME280;62389;51.412;5.436;2023-03-07T14:52:40;99707.66;;;2.95;94.49
74045;BME280;62389;51.412;5.436;2023-03-07T14:55:14;99711.78;;;3.00;93.96
74045;BME280;62389;51.412;5.436;2023-03-07T14:57:42;99710.75;;;3.06;94.19
74045;BME280;62389;51.412;5.436;2023-03-07T15:02:44;99715.13;;;3.04;93.28
74045;BME280;62389;51.412;5.436;2023-03-07T15:05:16;99718.69;;;3.00;93.44
74045;BME280;62389;51.412;5.436;2023-03-07T15:07:42;99707.50;;;2.99;93.58
74045;BME280;62389;51.412;5.436;2023-03-07T15:10:18;99710.03;;;3.02;93.87
74045;BME280;62389;51.412;5.436;2023-03-07T15:12:49;99708.28;;;3.03;93.80
74045;BME280;62389;51.412;5.436;2023-03-07T15:17:49;99719.25;;;2.81;92.49
74045;BME280;62389;51.412;5.436;2023-03-07T15:20:18;99721.09;;;2.78;92.13
74045;BME280;62389;51.412;5.436;2023-03-07T15:22:45;99724.59;;;2.75;92.60
74045;BME280;62389;51.412;5.436;2023-03-07T15:25:19;99731.50;;;2.75;92.62
74045;BME280;62389;51.412;5.436;2023-03-07T15:27:46;99722.78;;;2.79;93.29
74045;BME280;62389;51.412;5.436;2023-03-07T15:30:35;99728.66;;;2.84;92.86